createdAt,value
2016-11-09T00:00:06.740Z,0.98
2016-11-09T00:01:07.337Z,0.95
2016-11-09T00:02:07.955Z,1.02
2016-11-09T00:03:08.607Z,0.96
2016-11-09T00:04:09.409Z,0.95
2016-11-09T00:05:10.861Z,0.88
2016-11-09T00:06:11.466Z,0.94
2016-11-09T00:07:12.111Z,0.94
2016-11-09T00:08:12.725Z,0.87
2016-11-09T00:09:13.332Z,0.86
2016-11-09T00:10:13.945Z,0.87
2016-11-09T00:11:14.550Z,0.86
2016-11-09T00:12:15.161Z,0.78
2016-11-09T00:13:15.873Z,0.84
2016-11-09T00:14:16.537Z,0.78
2016-11-09T00:15:17.148Z,0.84
2016-11-09T00:16:17.747Z,0.86
2016-11-09T00:17:18.372Z,0.7
2016-11-09T00:18:18.983Z,0.63
2016-11-09T00:19:19.622Z,0.66
2016-11-09T00:20:20.230Z,0.74
2016-11-09T00:21:20.850Z,0.74
2016-11-09T00:22:21.452Z,0.73
2016-11-09T00:23:22.061Z,0.68
2016-11-09T00:24:22.694Z,0.6
2016-11-09T00:25:23.303Z,0.52
2016-11-09T00:26:23.926Z,0.59
2016-11-09T00:27:24.727Z,0.5
2016-11-09T00:28:25.417Z,0.56
2016-11-09T00:29:26.100Z,0.49
2016-11-09T00:30:26.683Z,0.39
2016-11-09T00:31:27.300Z,0.4
2016-11-09T00:32:27.911Z,0.37
2016-11-09T00:33:28.514Z,0.37
2016-11-09T00:34:29.114Z,0.31
2016-11-09T00:35:29.721Z,0.39
2016-11-09T00:36:30.330Z,0.26
2016-11-09T00:37:30.979Z,0.23
2016-11-09T00:38:31.599Z,0.29
2016-11-09T00:39:32.206Z,0.29
2016-11-09T00:40:32.816Z,0.29
2016-11-09T00:41:33.422Z,0.29
2016-11-09T00:42:34.037Z,0.26
2016-11-09T00:43:34.657Z,0.21
2016-11-09T00:44:35.267Z,0.12
2016-11-09T00:45:35.875Z,0.19
2016-11-09T00:46:36.504Z,0.19
2016-11-09T00:47:37.141Z,0.19
2016-11-09T00:48:37.760Z,0.12
2016-11-09T00:49:38.363Z,0.03
2016-11-09T00:50:38.970Z,0.07
2016-11-09T00:51:39.577Z,0.15
2016-11-09T00:52:40.321Z,0.03
2016-11-09T00:53:40.934Z,0.1
2016-11-09T00:54:41.547Z,0.12
2016-11-09T00:55:42.156Z,0.1
2016-11-09T00:56:42.770Z,0.11
2016-11-09T00:57:43.399Z,0.05
2016-11-09T00:58:44.084Z,0.1
2016-11-09T00:59:44.699Z,0.1
2016-11-09T01:00:45.302Z,0.05
2016-11-09T01:01:46.057Z,0.07
2016-11-09T01:02:46.652Z,0.03
2016-11-09T01:03:47.267Z,0.04
2016-11-09T01:04:47.873Z,0.01
2016-11-09T01:05:48.515Z,-0.06
2016-11-09T01:06:49.127Z,0.01
2016-11-09T01:07:49.745Z,-0.11
2016-11-09T01:08:50.358Z,-0.08
2016-11-09T01:09:50.977Z,-0.06
2016-11-09T01:10:51.587Z,-0.1
2016-11-09T01:11:52.192Z,-0.13
2016-11-09T01:12:52.828Z,-0.15
2016-11-09T01:13:53.438Z,-0.14
2016-11-09T01:14:54.051Z,-0.11
2016-11-09T01:15:54.658Z,-0.17
2016-11-09T01:16:55.294Z,-0.17
2016-11-09T01:17:55.897Z,-0.32
2016-11-09T01:18:56.515Z,-0.29
2016-11-09T01:19:57.127Z,-0.26
2016-11-09T01:20:57.734Z,-0.35
2016-11-09T01:21:58.340Z,-0.28
2016-11-09T01:22:58.950Z,-0.29
2016-11-09T01:23:59.558Z,-0.35
2016-11-09T01:25:00.172Z,-0.29
2016-11-09T01:26:00.797Z,-0.28
2016-11-09T01:27:01.403Z,-0.39
2016-11-09T01:28:02.029Z,-0.34
2016-11-09T01:29:02.677Z,-0.35
2016-11-09T01:30:03.279Z,-0.36
2016-11-09T01:31:03.887Z,-0.29
2016-11-09T01:32:04.503Z,-0.34
2016-11-09T01:33:05.129Z,-0.32
2016-11-09T01:34:05.732Z,-0.34
2016-11-09T01:35:06.349Z,-0.32
2016-11-09T01:36:06.946Z,-0.29
2016-11-09T01:37:07.551Z,-0.36
2016-11-09T01:38:08.166Z,-0.39
2016-11-09T01:39:08.780Z,-0.47
2016-11-09T01:40:09.392Z,-0.49
2016-11-09T01:41:10.005Z,-0.44
2016-11-09T01:42:10.623Z,-0.52
2016-11-09T01:43:11.218Z,-0.54
2016-11-09T01:44:11.827Z,-0.56
2016-11-09T01:45:12.438Z,-0.56
2016-11-09T01:46:13.049Z,-0.43
2016-11-09T01:47:13.650Z,-0.5
2016-11-09T01:48:14.285Z,-0.54
2016-11-09T01:49:14.903Z,-0.49
2016-11-09T01:50:15.505Z,-0.56
2016-11-09T01:51:16.112Z,-0.49
2016-11-09T01:52:16.712Z,-0.56
2016-11-09T01:53:17.362Z,-0.54
2016-11-09T01:54:17.974Z,-0.52
2016-11-09T01:55:18.589Z,-0.57
2016-11-09T01:56:19.195Z,-0.56
2016-11-09T01:57:19.790Z,-0.56
2016-11-09T01:58:20.395Z,-0.56
2016-11-09T01:59:21.823Z,-0.56
2016-11-09T02:00:22.440Z,-0.61
2016-11-09T02:01:23.057Z,-0.61
2016-11-09T02:02:23.666Z,-0.54
2016-11-09T02:03:24.278Z,-0.53
2016-11-09T02:04:24.892Z,-0.61
2016-11-09T02:05:25.499Z,-0.54
2016-11-09T02:06:26.098Z,-0.62
2016-11-09T02:07:26.700Z,-0.7
2016-11-09T02:08:27.308Z,-0.68
2016-11-09T02:09:27.929Z,-0.62
2016-11-09T02:10:28.574Z,-0.62
2016-11-09T02:11:29.205Z,-0.56
2016-11-09T02:12:29.816Z,-0.54
2016-11-09T02:13:30.449Z,-0.64
2016-11-09T02:14:31.064Z,-0.59
2016-11-09T02:15:31.691Z,-0.64
2016-11-09T02:16:32.293Z,-0.71
2016-11-09T02:17:32.917Z,-0.74
2016-11-09T02:18:33.543Z,-0.7
2016-11-09T02:19:34.157Z,-0.72
2016-11-09T02:20:34.779Z,-0.77
2016-11-09T02:21:35.397Z,-0.72
2016-11-09T02:22:36.007Z,-0.74
2016-11-09T02:23:36.656Z,-0.78
2016-11-09T02:24:37.275Z,-0.7
2016-11-09T02:25:37.900Z,-0.72
2016-11-09T02:26:38.507Z,-0.75
2016-11-09T02:27:39.136Z,-0.72
2016-11-09T02:28:39.748Z,-0.78
2016-11-09T02:29:40.377Z,-0.78
2016-11-09T02:30:40.998Z,-0.71
2016-11-09T02:31:41.626Z,-0.71
2016-11-09T02:32:42.254Z,-0.72
2016-11-09T02:33:42.861Z,-0.72
2016-11-09T02:34:43.473Z,-0.7
2016-11-09T02:35:44.077Z,-0.77
2016-11-09T02:36:44.680Z,-0.75
2016-11-09T02:37:45.306Z,-0.77
2016-11-09T02:38:45.918Z,-0.7
2016-11-09T02:39:46.548Z,-0.78
2016-11-09T02:40:47.157Z,-0.71
2016-11-09T02:41:47.762Z,-0.72
2016-11-09T02:42:48.379Z,-0.7
2016-11-09T02:43:48.987Z,-0.77
2016-11-09T02:44:49.641Z,-0.74
2016-11-09T02:45:50.253Z,-0.71
2016-11-09T02:46:50.865Z,-0.72
2016-11-09T02:47:51.470Z,-0.8
2016-11-09T02:48:52.090Z,-0.72
2016-11-09T02:49:52.717Z,-0.68
2016-11-09T02:50:53.323Z,-0.67
2016-11-09T02:51:53.924Z,-0.75
2016-11-09T02:52:54.534Z,-0.7
2016-11-09T02:53:55.138Z,-0.78
2016-11-09T02:54:55.745Z,-0.71
2016-11-09T02:55:59.236Z,-0.77
2016-11-09T02:56:59.853Z,-0.75
2016-11-09T02:58:00.461Z,-0.78
2016-11-09T02:59:01.066Z,-0.75
2016-11-09T03:00:01.691Z,-0.7
2016-11-09T03:01:02.302Z,-0.72
2016-11-09T03:02:02.916Z,-0.74
2016-11-09T03:03:03.582Z,-0.74
2016-11-09T03:04:04.160Z,-0.83
2016-11-09T03:05:04.785Z,-0.78
2016-11-09T03:06:05.391Z,-0.86
2016-11-09T03:07:06.076Z,-0.83
2016-11-09T03:08:06.691Z,-0.85
2016-11-09T03:09:07.300Z,-0.85
2016-11-09T03:10:07.940Z,-0.86
2016-11-09T03:11:08.549Z,-0.85
2016-11-09T03:12:09.163Z,-0.89
2016-11-09T03:13:09.771Z,-0.96
2016-11-09T03:14:10.375Z,-0.94
2016-11-09T03:15:11.971Z,-0.94
2016-11-09T03:16:11.613Z,-0.94
2016-11-09T03:17:12.213Z,-0.93
2016-11-09T03:18:12.824Z,-0.91
2016-11-09T03:19:13.441Z,-0.96
2016-11-09T03:20:14.140Z,-0.99
2016-11-09T03:21:14.760Z,-0.99
2016-11-09T03:22:15.376Z,-0.99
2016-11-09T03:23:15.979Z,-0.99
2016-11-09T03:24:16.603Z,-1.01
2016-11-09T03:25:17.249Z,-0.97
2016-11-09T03:26:17.870Z,-0.99
2016-11-09T03:27:18.489Z,-0.91
2016-11-09T03:28:19.097Z,-0.93
2016-11-09T03:29:19.719Z,-0.89
2016-11-09T03:30:20.339Z,-0.94
2016-11-09T03:31:20.976Z,-0.89
2016-11-09T03:32:21.582Z,-0.93
2016-11-09T03:33:22.201Z,-0.93
2016-11-09T03:34:22.820Z,-0.93
2016-11-09T03:35:23.440Z,-0.93
2016-11-09T03:36:24.051Z,-0.93
2016-11-09T03:37:24.666Z,-0.93
2016-11-09T03:38:25.294Z,-0.86
2016-11-09T03:39:25.897Z,-0.9
2016-11-09T03:40:26.507Z,-0.93
2016-11-09T03:41:27.130Z,-0.83
2016-11-09T03:42:27.746Z,-0.9
2016-11-09T03:43:28.363Z,-0.91
2016-11-09T03:44:28.961Z,-0.93
2016-11-09T03:45:29.613Z,-0.85
2016-11-09T03:46:30.247Z,-0.83
2016-11-09T03:47:30.846Z,-0.82
2016-11-09T03:48:31.456Z,-0.8
2016-11-09T03:49:32.121Z,-0.91
2016-11-09T03:50:32.718Z,-0.85
2016-11-09T03:51:33.336Z,-0.86
2016-11-09T03:52:33.957Z,-0.72
2016-11-09T03:53:34.549Z,-0.74
2016-11-09T03:54:35.153Z,-0.74
2016-11-09T03:55:35.776Z,-0.78
2016-11-09T03:56:36.377Z,-0.82
2016-11-09T03:57:36.983Z,-0.82
2016-11-09T03:58:37.596Z,-0.82
2016-11-09T03:59:38.207Z,-0.75
2016-11-09T04:00:38.813Z,-0.77
2016-11-09T04:01:39.439Z,-0.78
2016-11-09T04:02:40.038Z,-0.77
2016-11-09T04:03:40.643Z,-0.86
2016-11-09T04:04:41.242Z,-0.86
2016-11-09T04:05:41.853Z,-0.86
2016-11-09T04:06:42.481Z,-0.86
2016-11-09T04:07:43.254Z,-0.94
2016-11-09T04:08:43.868Z,-0.83
2016-11-09T04:09:44.478Z,-0.89
2016-11-09T04:10:45.095Z,-0.94
2016-11-09T04:11:45.703Z,-0.83
2016-11-09T04:12:46.320Z,-0.96
2016-11-09T04:13:46.923Z,-0.89
2016-11-09T04:14:47.532Z,-0.86
2016-11-09T04:15:48.140Z,-0.89
2016-11-09T04:16:48.763Z,-0.91
2016-11-09T04:17:49.391Z,-0.94
2016-11-09T04:18:50.012Z,-0.91
2016-11-09T04:19:50.720Z,-1.04
2016-11-09T04:20:51.327Z,-0.96
2016-11-09T04:21:51.934Z,-1.07
2016-11-09T04:22:52.546Z,-0.99
2016-11-09T04:23:53.174Z,-0.99
2016-11-09T04:24:53.799Z,-0.97
2016-11-09T04:25:54.408Z,-0.97
2016-11-09T04:26:55.009Z,-1.02
2016-11-09T04:27:55.608Z,-0.89
2016-11-09T04:28:56.251Z,-0.94
2016-11-09T04:29:56.867Z,-0.93
2016-11-09T04:30:57.469Z,-0.99
2016-11-09T04:31:58.113Z,-0.97
2016-11-09T04:32:58.721Z,-1.04
2016-11-09T04:33:59.327Z,-0.99
2016-11-09T04:34:59.938Z,-0.99
2016-11-09T04:36:00.537Z,-1.05
2016-11-09T04:37:01.149Z,-1.04
2016-11-09T04:38:01.765Z,-0.97
2016-11-09T04:39:02.382Z,-1.02
2016-11-09T04:40:03.001Z,-1.02
2016-11-09T04:41:03.623Z,-0.97
2016-11-09T04:42:04.228Z,-1.05
2016-11-09T04:43:04.857Z,-1.01
2016-11-09T04:44:05.466Z,-1.04
2016-11-09T04:45:06.063Z,-1.09
2016-11-09T04:46:06.684Z,-1.14
2016-11-09T04:47:07.278Z,-1.11
2016-11-09T04:48:07.885Z,-1.11
2016-11-09T04:49:08.510Z,-1.11
2016-11-09T04:50:09.107Z,-1.12
2016-11-09T04:51:09.716Z,-1.22
2016-11-09T04:52:10.338Z,-1.14
2016-11-09T04:53:10.941Z,-1.23
2016-11-09T04:54:11.547Z,-1.27
2016-11-09T04:55:12.184Z,-1.23
2016-11-09T04:56:12.794Z,-1.09
2016-11-09T04:57:13.402Z,-1.12
2016-11-09T04:58:14.013Z,-1.11
2016-11-09T04:59:14.636Z,-1.14
2016-11-09T05:00:15.243Z,-1.08
2016-11-09T05:01:15.860Z,-1.11
2016-11-09T05:02:16.476Z,-1.12
2016-11-09T05:03:17.080Z,-1.22
2016-11-09T05:04:17.693Z,-1.25
2016-11-09T05:05:18.303Z,-1.09
2016-11-09T05:06:18.906Z,-1.26
2016-11-09T05:07:19.517Z,-1.07
2016-11-09T05:08:20.131Z,-1.2
2016-11-09T05:09:20.743Z,-1.2
2016-11-09T05:10:21.348Z,-1.19
2016-11-09T05:11:21.955Z,-1.2
2016-11-09T05:12:22.566Z,-1.27
2016-11-09T05:13:23.174Z,-1.23
2016-11-09T05:14:23.781Z,-1.26
2016-11-09T05:15:24.391Z,-1.4
2016-11-09T05:16:24.994Z,-1.37
2016-11-09T05:17:25.614Z,-1.33
2016-11-09T05:18:26.212Z,-1.37
2016-11-09T05:19:26.827Z,-1.48
2016-11-09T05:20:27.432Z,-1.46
2016-11-09T05:21:28.051Z,-1.59
2016-11-09T05:22:28.722Z,-1.44
2016-11-09T05:23:29.321Z,-1.5
2016-11-09T05:24:29.943Z,-1.46
2016-11-09T05:25:30.582Z,-1.58
2016-11-09T05:26:31.183Z,-1.71
2016-11-09T05:27:31.826Z,-1.64
2016-11-09T05:28:32.450Z,-1.56
2016-11-09T05:29:33.079Z,-1.59
2016-11-09T05:30:33.748Z,-1.65
2016-11-09T05:31:34.368Z,-1.66
2016-11-09T05:32:34.974Z,-1.64
2016-11-09T05:33:35.566Z,-1.65
2016-11-09T05:34:36.169Z,-1.69
2016-11-09T05:35:36.789Z,-1.65
2016-11-09T05:36:37.418Z,-1.68
2016-11-09T05:37:38.039Z,-1.77
2016-11-09T05:38:38.672Z,-1.82
2016-11-09T05:39:39.283Z,-1.72
2016-11-09T05:40:39.907Z,-1.68
2016-11-09T05:41:40.511Z,-1.66
2016-11-09T05:42:41.109Z,-1.76
2016-11-09T05:43:41.715Z,-1.68
2016-11-09T05:44:42.322Z,-1.68
2016-11-09T05:45:42.933Z,-1.68
2016-11-09T05:46:43.614Z,-1.66
2016-11-09T05:47:44.215Z,-1.72
2016-11-09T05:48:44.826Z,-1.72
2016-11-09T05:49:45.435Z,-1.82
2016-11-09T05:50:46.080Z,-1.68
2016-11-09T05:51:46.692Z,-1.71
2016-11-09T05:52:47.313Z,-1.82
2016-11-09T05:53:47.937Z,-1.76
2016-11-09T05:54:48.582Z,-1.71
2016-11-09T05:55:49.209Z,-1.72
2016-11-09T05:56:49.817Z,-1.74
2016-11-09T05:57:50.433Z,-1.72
2016-11-09T05:58:51.046Z,-1.69
2016-11-09T05:59:51.653Z,-1.8
2016-11-09T06:00:52.278Z,-1.72
2016-11-09T06:01:52.887Z,-1.62
2016-11-09T06:02:53.516Z,-1.72
2016-11-09T06:03:54.136Z,-1.66
2016-11-09T06:04:54.771Z,-1.76
2016-11-09T06:05:55.398Z,-1.8
2016-11-09T06:06:56.010Z,-1.77
2016-11-09T06:07:56.736Z,-1.87
2016-11-09T06:08:57.365Z,-1.82
2016-11-09T06:09:57.974Z,-1.66
2016-11-09T06:10:58.588Z,-1.64
2016-11-09T06:11:59.196Z,-1.68
2016-11-09T06:12:59.807Z,-1.66
2016-11-09T06:14:00.443Z,-1.64
2016-11-09T06:15:01.097Z,-1.64
2016-11-09T06:16:01.762Z,-1.65
2016-11-09T06:17:02.371Z,-1.65
2016-11-09T06:18:03.029Z,-1.69
2016-11-09T06:19:03.685Z,-1.64
2016-11-09T06:20:04.440Z,-1.68
2016-11-09T06:21:05.454Z,-1.74
2016-11-09T06:22:05.848Z,-1.72
2016-11-09T06:23:06.499Z,-1.74
2016-11-09T06:24:07.126Z,-1.68
2016-11-09T06:25:07.740Z,-1.66
2016-11-09T06:26:08.352Z,-1.64
2016-11-09T06:27:08.984Z,-1.64
2016-11-09T06:28:09.590Z,-1.64
2016-11-09T06:29:10.209Z,-1.62
2016-11-09T06:30:10.902Z,-1.64
2016-11-09T06:31:11.512Z,-1.59
2016-11-09T06:32:12.117Z,-1.65
2016-11-09T06:33:12.770Z,-1.56
2016-11-09T06:34:13.411Z,-1.47
2016-11-09T06:35:14.030Z,-1.56
2016-11-09T06:36:14.664Z,-1.44
2016-11-09T06:37:15.285Z,-1.46
2016-11-09T06:38:15.891Z,-1.33
2016-11-09T06:39:16.507Z,-1.37
2016-11-09T06:40:17.109Z,-1.33
2016-11-09T06:41:17.733Z,-1.43
2016-11-09T06:42:18.350Z,-1.35
2016-11-09T06:43:18.980Z,-1.23
2016-11-09T06:44:19.642Z,-1.3
2016-11-09T06:45:20.258Z,-1.25
2016-11-09T06:46:20.873Z,-1.3
2016-11-09T06:47:21.474Z,-1.29
2016-11-09T06:48:22.116Z,-1.3
2016-11-09T06:49:22.770Z,-1.19
2016-11-09T06:50:23.376Z,-1.22
2016-11-09T06:51:23.979Z,-1.17
2016-11-09T06:52:24.600Z,-1.2
2016-11-09T06:53:25.211Z,-1.15
2016-11-09T06:54:25.855Z,-1.2
2016-11-09T06:55:26.482Z,-1.2
2016-11-09T06:56:27.088Z,-1.15
2016-11-09T06:57:27.727Z,-1.23
2016-11-09T06:58:28.344Z,-1.2
2016-11-09T06:59:28.969Z,-1.2
2016-11-09T07:00:29.603Z,-1.17
2016-11-09T07:01:30.225Z,-1.22
2016-11-09T07:02:30.841Z,-1.2
2016-11-09T07:03:31.465Z,-1.09
2016-11-09T07:04:32.071Z,-1.09
2016-11-09T07:05:32.693Z,-1.04
2016-11-09T07:06:33.298Z,-1.02
2016-11-09T07:07:33.952Z,-1.07
2016-11-09T07:08:34.573Z,-1.04
2016-11-09T07:09:35.182Z,-0.94
2016-11-09T07:10:35.813Z,-0.97
2016-11-09T07:11:36.437Z,-1.04
2016-11-09T07:12:37.080Z,-1.02
2016-11-09T07:13:37.732Z,-1.04
2016-11-09T07:14:38.342Z,-1.15
2016-11-09T07:15:38.969Z,-1.08
2016-11-09T07:16:39.684Z,-1.04
2016-11-09T07:17:40.305Z,-1.11
2016-11-09T07:18:40.973Z,-1.07
2016-11-09T07:19:41.691Z,-1.08
2016-11-09T07:20:42.325Z,-1.07
2016-11-09T07:21:42.907Z,-0.97
2016-11-09T07:22:43.501Z,-1.02
2016-11-09T07:23:44.139Z,-1.12
2016-11-09T07:24:44.760Z,-0.97
2016-11-09T07:25:45.384Z,-0.94
2016-11-09T07:26:46.042Z,-0.85
2016-11-09T07:27:46.653Z,-0.94
2016-11-09T07:28:47.277Z,-0.93
2016-11-09T07:29:47.899Z,-0.91
2016-11-09T07:30:48.526Z,-0.93
2016-11-09T07:31:49.158Z,-0.83
2016-11-09T07:32:49.778Z,-0.89
2016-11-09T07:33:50.398Z,-0.96
2016-11-09T07:34:51.056Z,-0.89
2016-11-09T07:35:51.673Z,-0.83
2016-11-09T07:36:52.316Z,-0.82
2016-11-09T07:37:52.943Z,-0.86
2016-11-09T07:38:53.606Z,-0.83
2016-11-09T07:39:54.212Z,-0.89
2016-11-09T07:40:54.839Z,-0.82
2016-11-09T07:41:55.594Z,-0.8
2016-11-09T07:42:56.223Z,-0.77
2016-11-09T07:43:56.882Z,-0.8
2016-11-09T07:44:57.500Z,-0.78
2016-11-09T07:45:58.157Z,-0.82
2016-11-09T07:46:58.817Z,-0.93
2016-11-09T07:47:59.444Z,-0.91
2016-11-09T07:49:00.059Z,-0.9
2016-11-09T07:50:00.787Z,-0.86
2016-11-09T07:51:01.440Z,-0.9
2016-11-09T07:52:02.053Z,-0.78
2016-11-09T07:53:02.670Z,-0.72
2016-11-09T07:54:03.276Z,-0.72
2016-11-09T07:55:03.922Z,-0.75
2016-11-09T07:56:04.540Z,-0.8
2016-11-09T07:57:05.158Z,-0.67
2016-11-09T07:58:05.781Z,-0.59
2016-11-09T07:59:06.388Z,-0.59
2016-11-09T08:00:07.025Z,-0.64
2016-11-09T08:01:07.670Z,-0.67
2016-11-09T08:02:08.282Z,-0.62
2016-11-09T08:03:08.905Z,-0.57
2016-11-09T08:04:09.508Z,-0.54
2016-11-09T08:05:11.092Z,-0.49
2016-11-09T08:06:11.741Z,-0.61
2016-11-09T08:07:12.388Z,-0.41
2016-11-09T08:08:12.994Z,-0.47
2016-11-09T08:09:13.603Z,-0.56
2016-11-09T08:10:14.263Z,-0.44
2016-11-09T08:11:14.870Z,-0.43
2016-11-09T08:12:15.525Z,-0.47
2016-11-09T08:13:16.175Z,-0.41
2016-11-09T08:14:16.778Z,-0.36
2016-11-09T08:15:17.386Z,-0.39
2016-11-09T08:16:18.034Z,-0.34
2016-11-09T08:17:18.685Z,-0.39
2016-11-09T08:18:19.333Z,-0.41
2016-11-09T08:19:19.900Z,-0.32
2016-11-09T08:20:20.520Z,-0.34
2016-11-09T08:21:21.142Z,-0.28
2016-11-09T08:22:21.759Z,-0.2
2016-11-09T08:23:22.377Z,-0.1
2016-11-09T08:24:23.003Z,-0.08
2016-11-09T08:25:23.648Z,-0.06
2016-11-09T08:26:24.282Z,-0.11
2016-11-09T08:27:24.903Z,-0.11
2016-11-09T08:28:25.534Z,0.03
2016-11-09T08:29:26.141Z,0.01
2016-11-09T08:30:26.766Z,-0.06
2016-11-09T08:31:27.381Z,0.03
2016-11-09T08:32:28.006Z,0.1
2016-11-09T08:33:28.614Z,0.15
2016-11-09T08:34:29.232Z,0.07
2016-11-09T08:35:29.855Z,0.16
2016-11-09T08:36:30.470Z,0.12
2016-11-09T08:37:31.084Z,0.11
2016-11-09T08:38:31.706Z,0.1
2016-11-09T08:39:32.313Z,0.15
2016-11-09T08:40:32.923Z,0.29
2016-11-09T08:41:33.530Z,0.32
2016-11-09T08:42:34.143Z,0.29
2016-11-09T08:43:34.752Z,0.34
2016-11-09T08:44:35.373Z,0.34
2016-11-09T08:45:36.024Z,0.36
2016-11-09T08:46:36.653Z,0.44
2016-11-09T08:47:37.265Z,0.39
2016-11-09T08:48:37.882Z,0.5
2016-11-09T08:49:38.516Z,0.5
2016-11-09T08:50:39.160Z,0.56
2016-11-09T08:51:39.779Z,0.52
2016-11-09T08:52:40.413Z,0.65
2016-11-09T08:53:41.026Z,0.68
2016-11-09T08:54:41.716Z,0.73
2016-11-09T08:55:42.319Z,0.78
2016-11-09T08:56:42.937Z,0.86
2016-11-09T08:57:43.543Z,0.86
2016-11-09T08:58:44.156Z,0.95
2016-11-09T08:59:44.803Z,0.86
2016-11-09T09:00:45.404Z,0.94
2016-11-09T09:01:46.001Z,0.98
2016-11-09T09:02:46.632Z,1.01
2016-11-09T09:03:47.252Z,0.95
2016-11-09T09:04:47.874Z,1.02
2016-11-09T09:05:48.529Z,1.04
2016-11-09T09:06:49.164Z,1.02
2016-11-09T09:07:49.782Z,0.99
2016-11-09T09:08:50.408Z,1.05
2016-11-09T09:09:51.023Z,1.02
2016-11-09T09:10:51.710Z,1.05
2016-11-09T09:11:52.340Z,1.12
2016-11-09T09:12:52.955Z,1.06
2016-11-09T09:13:53.567Z,1.06
2016-11-09T09:14:54.188Z,1.08
2016-11-09T09:15:54.810Z,1.1
2016-11-09T09:16:55.433Z,1.04
2016-11-09T09:17:56.092Z,1.14
2016-11-09T09:18:56.714Z,1.13
2016-11-09T09:19:57.351Z,1.08
2016-11-09T09:20:57.973Z,1.01
2016-11-09T09:21:58.595Z,1.1
2016-11-09T09:22:59.213Z,1.04
2016-11-09T09:23:59.836Z,1.19
2016-11-09T09:25:00.485Z,1.06
2016-11-09T09:26:01.121Z,1.01
2016-11-09T09:27:01.745Z,1.05
2016-11-09T09:28:02.356Z,0.95
2016-11-09T09:29:02.965Z,0.99
2016-11-09T09:30:03.597Z,1.12
2016-11-09T09:31:04.219Z,1.01
2016-11-09T09:32:04.852Z,1.08
2016-11-09T09:33:05.458Z,1.06
2016-11-09T09:34:06.063Z,0.98
2016-11-09T09:35:06.685Z,0.99
2016-11-09T09:36:07.290Z,1.02
2016-11-09T09:37:07.901Z,1.05
2016-11-09T09:38:08.512Z,1.12
2016-11-09T09:39:09.133Z,1.01
2016-11-09T09:40:09.780Z,1.04
2016-11-09T09:41:10.393Z,1.06
2016-11-09T09:42:11.006Z,1.04
2016-11-09T09:43:11.635Z,0.91
2016-11-09T09:44:12.256Z,0.98
2016-11-09T09:45:12.989Z,0.99
2016-11-09T09:46:13.598Z,0.94
2016-11-09T09:47:14.308Z,0.86
2016-11-09T09:48:14.991Z,0.96
2016-11-09T09:49:15.621Z,1.05
2016-11-09T09:50:16.247Z,1.05
2016-11-09T09:51:16.895Z,0.96
2016-11-09T09:52:17.529Z,1.04
2016-11-09T09:53:18.153Z,1.1
2016-11-09T09:54:18.780Z,1.2
2016-11-09T09:55:19.395Z,1.2
2016-11-09T09:56:20.002Z,1.2
2016-11-09T09:57:20.632Z,1.28
2016-11-09T09:58:21.254Z,1.22
2016-11-09T09:59:21.887Z,1.24
2016-11-09T10:00:22.553Z,1.19
2016-11-09T10:01:23.158Z,1.14
2016-11-09T10:02:23.787Z,1.14
2016-11-09T10:03:24.414Z,1.1
2016-11-09T10:04:25.085Z,1.19
2016-11-09T10:05:25.717Z,1.19
2016-11-09T10:06:26.330Z,1.3
2016-11-09T10:07:26.954Z,1.14
2016-11-09T10:08:27.577Z,1.2
2016-11-09T10:09:28.198Z,1.37
2016-11-09T10:10:28.816Z,1.32
2016-11-09T10:11:29.442Z,1.32
2016-11-09T10:12:30.052Z,1.34
2016-11-09T10:13:30.674Z,1.38
2016-11-09T10:14:31.347Z,1.53
2016-11-09T10:15:31.978Z,1.45
2016-11-09T10:16:32.625Z,1.42
2016-11-09T10:17:33.267Z,1.48
2016-11-09T10:18:33.916Z,1.45
2016-11-09T10:19:34.567Z,1.49
2016-11-09T10:20:35.196Z,1.44
2016-11-09T10:21:35.812Z,1.44
2016-11-09T10:22:36.440Z,1.32
2016-11-09T10:23:37.052Z,1.31
2016-11-09T10:24:37.677Z,1.38
2016-11-09T10:25:38.293Z,1.49
2016-11-09T10:26:38.943Z,1.48
2016-11-09T10:27:39.585Z,1.49
2016-11-09T10:28:40.213Z,1.44
2016-11-09T10:29:40.833Z,1.5
2016-11-09T10:30:41.445Z,1.52
2016-11-09T10:31:42.066Z,1.58
2016-11-09T10:32:42.678Z,1.63
2016-11-09T10:33:43.296Z,1.53
2016-11-09T10:34:43.964Z,1.48
2016-11-09T10:35:44.571Z,1.49
2016-11-09T10:36:45.178Z,1.49
2016-11-09T10:37:45.798Z,1.42
2016-11-09T10:38:46.415Z,1.32
2016-11-09T10:39:47.034Z,1.35
2016-11-09T10:40:47.687Z,1.44
2016-11-09T10:41:48.291Z,1.44
2016-11-09T10:42:48.901Z,1.38
2016-11-09T10:43:49.511Z,1.53
2016-11-09T10:44:50.142Z,1.5
2016-11-09T10:45:50.746Z,1.44
2016-11-09T10:46:51.368Z,1.32
2016-11-09T10:47:51.995Z,1.38
2016-11-09T10:48:52.638Z,1.35
2016-11-09T10:49:53.249Z,1.34
2016-11-09T10:50:53.867Z,1.32
2016-11-09T10:51:54.578Z,1.23
2016-11-09T10:52:55.201Z,1.31
2016-11-09T10:53:55.811Z,1.28
2016-11-09T10:54:56.434Z,1.32
2016-11-09T10:55:57.049Z,1.4
2016-11-09T10:56:57.666Z,1.35
2016-11-09T10:57:58.271Z,1.34
2016-11-09T10:58:58.870Z,1.32
2016-11-09T10:59:59.588Z,1.35
2016-11-09T11:01:00.205Z,1.31
2016-11-09T11:02:00.831Z,1.32
2016-11-09T11:03:01.444Z,1.32
2016-11-09T11:04:02.052Z,1.32
2016-11-09T11:05:02.669Z,1.35
2016-11-09T11:06:03.278Z,1.41
2016-11-09T11:07:03.878Z,1.28
2016-11-09T11:08:04.494Z,1.26
2016-11-09T11:09:05.171Z,1.19
2016-11-09T11:10:05.747Z,1.23
2016-11-09T11:11:06.408Z,1.14
2016-11-09T11:12:07.041Z,1.24
2016-11-09T11:13:07.703Z,1.38
2016-11-09T11:14:08.341Z,1.42
2016-11-09T11:15:09.025Z,1.35
2016-11-09T11:16:09.794Z,1.41
2016-11-09T11:17:10.515Z,1.55
2016-11-09T11:18:11.172Z,1.45
2016-11-09T11:19:11.911Z,1.35
2016-11-09T11:20:12.480Z,1.37
2016-11-09T11:21:13.139Z,1.24
2016-11-09T11:22:13.763Z,1.22
2016-11-09T11:23:14.410Z,1.22
2016-11-09T11:24:15.045Z,1.24
2016-11-09T11:25:15.723Z,1.24
2016-11-09T11:26:16.350Z,1.31
2016-11-09T11:27:17.069Z,1.34
2016-11-09T11:28:17.851Z,1.34
2016-11-09T11:29:18.512Z,1.24
2016-11-09T11:30:19.144Z,1.31
2016-11-09T11:31:19.793Z,1.34
2016-11-09T11:32:20.444Z,1.32
2016-11-09T11:33:21.127Z,1.38
2016-11-09T11:34:21.821Z,1.4
2016-11-09T11:35:22.495Z,1.52
2016-11-09T11:36:23.184Z,1.5
2016-11-09T11:37:23.856Z,1.53
2016-11-09T11:38:24.552Z,1.49
2016-11-09T11:39:25.171Z,1.45
2016-11-09T11:40:25.795Z,1.49
2016-11-09T11:41:26.410Z,1.55
2016-11-09T11:42:27.102Z,1.55
2016-11-09T11:43:27.735Z,1.55
2016-11-09T11:44:28.454Z,1.58
2016-11-09T11:45:29.092Z,1.52
2016-11-09T11:46:29.801Z,1.5
2016-11-09T11:47:30.446Z,1.4
2016-11-09T11:48:31.071Z,1.38
2016-11-09T11:49:31.695Z,1.45
2016-11-09T11:50:32.337Z,1.41
2016-11-09T11:51:32.964Z,1.53
2016-11-09T11:52:33.588Z,1.52
2016-11-09T11:53:34.197Z,1.53
2016-11-09T11:54:34.820Z,1.4
2016-11-09T11:55:35.485Z,1.32
2016-11-09T11:56:36.157Z,1.35
2016-11-09T11:57:36.884Z,1.32
2016-11-09T11:58:37.559Z,1.37
2016-11-09T11:59:38.199Z,1.45
2016-11-09T12:00:38.903Z,1.49
2016-11-09T12:01:39.520Z,1.53
2016-11-09T12:02:40.148Z,1.49
2016-11-09T12:03:40.840Z,1.4
2016-11-09T12:04:41.523Z,1.34
2016-11-09T12:05:42.238Z,1.34
2016-11-09T12:06:42.838Z,1.38
2016-11-09T12:07:43.519Z,1.26
2016-11-09T12:08:44.152Z,1.35
2016-11-09T12:09:44.785Z,1.34
2016-11-09T12:10:45.424Z,1.45
2016-11-09T12:11:46.043Z,1.41
2016-11-09T12:12:46.771Z,1.42
2016-11-09T12:13:47.372Z,1.59
2016-11-09T12:14:48.009Z,1.53
2016-11-09T12:15:48.634Z,1.53
2016-11-09T12:16:49.343Z,1.56
2016-11-09T12:17:50.003Z,1.59
2016-11-09T12:18:50.622Z,1.67
2016-11-09T12:19:51.282Z,1.6
2016-11-09T12:20:51.947Z,1.62
2016-11-09T12:21:52.737Z,1.67
2016-11-09T12:22:53.369Z,1.66
2016-11-09T12:23:54.251Z,1.66
2016-11-09T12:24:55.288Z,1.56
2016-11-09T12:25:56.151Z,1.62
2016-11-09T12:26:56.839Z,1.53
2016-11-09T12:27:57.664Z,1.59
2016-11-09T12:28:58.413Z,1.66
2016-11-09T12:29:59.055Z,1.62
2016-11-09T12:30:59.702Z,1.66
2016-11-09T12:32:00.399Z,1.66
2016-11-09T12:33:01.386Z,1.5
2016-11-09T12:34:02.126Z,1.55
2016-11-09T12:35:02.938Z,1.55
2016-11-09T12:36:03.724Z,1.53
2016-11-09T12:37:04.406Z,1.49
2016-11-09T12:38:05.057Z,1.5
2016-11-09T12:39:05.701Z,1.56
2016-11-09T12:40:06.408Z,1.55
2016-11-09T12:41:07.072Z,1.52
2016-11-09T12:42:07.780Z,1.6
2016-11-09T12:43:08.425Z,1.59
2016-11-09T12:44:09.145Z,1.63
2016-11-09T12:45:09.867Z,1.6
2016-11-09T12:46:10.508Z,1.62
2016-11-09T12:47:11.282Z,1.53
2016-11-09T12:48:12.031Z,1.52
2016-11-09T12:49:12.721Z,1.58
2016-11-09T12:50:13.327Z,1.59
2016-11-09T12:51:13.976Z,1.59
2016-11-09T12:52:14.610Z,1.56
2016-11-09T12:53:15.255Z,1.56
2016-11-09T12:54:15.943Z,1.5
2016-11-09T12:55:16.697Z,1.52
2016-11-09T12:56:17.531Z,1.56
2016-11-09T12:57:18.230Z,1.55
2016-11-09T12:58:18.887Z,1.52
2016-11-09T12:59:19.541Z,1.56
2016-11-09T13:00:20.207Z,1.49
2016-11-09T13:01:20.891Z,1.42
2016-11-09T13:02:21.606Z,1.44
2016-11-09T13:03:22.451Z,1.42
2016-11-09T13:04:23.089Z,1.42
2016-11-09T13:05:24.127Z,1.48
2016-11-09T13:06:24.594Z,1.44
2016-11-09T13:07:25.555Z,1.41
2016-11-09T13:08:26.226Z,1.35
2016-11-09T13:09:26.855Z,1.35
2016-11-09T13:10:27.497Z,1.38
2016-11-09T13:11:28.158Z,1.38
2016-11-09T13:12:28.807Z,1.37
2016-11-09T13:13:29.464Z,1.56
2016-11-09T13:14:30.106Z,1.52